sensor_id;sensor_type;location;lat;lon;timestamp;P1;durP1;ratioP1;P2;durP2;ratioP2
3567;SDS011;1798;48.486;9.232;2023-12-14T00:00:00;7.87;;;4.43;;
3567;SDS011;1798;48.486;9.232;2023-12-14T00:02:26;5.23;;;3.13;;
3567;SDS011;1798;48.486;9.232;2023-12-14T00:04:54;5.73;;;3.57;;
3567;SDS011;1798;48.486;9.232;2023-12-14T00:07:20;9.60;;;3.00;;
3567;SDS011;1798;48.486;9.232;2023-12-14T00:09:47;5.73;;;3.27;;
3567;SDS011;1798;48.486;9.232;2023-12-14T00:12:14;5.10;;;3.20;;
3567;SDS011;1798;48.486;9.232;2023-12-14T00:14:40;6.40;;;3.63;;
3567;SDS011;1798;48.486;9.232;2023-12-14T00:17:07;7.63;;;3.60;;
3567;SDS011;1798;48.486;9.232;2023-12-14T00:19:33;5.87;;;3.70;;
3567;SDS011;1798;48.486;9.232;2023-12-14T00:22:01;5.03;;;3.10;;
3567;SDS011;1798;48.486;9.232;2023-12-14T00:24:28;5.50;;;3.60;;
3567;SDS011;1798;48.486;9.232;2023-12-14T00:26:54;6.33;;;3.07;;
3567;SDS011;1798;48.486;9.232;2023-12-14T00:29:21;6.50;;;3.40;;
3567;SDS011;1798;48.486;9.232;2023-12-14T00:31:48;5.60;;;2.90;;
3567;SDS011;1798;48.486;9.232;2023-12-14T00:34:14;5.00;;;3.20;;
3567;SDS011;1798;48.486;9.232;2023-12-14T00:36:41;5.37;;;2.53;;
3567;SDS011;1798;48.486;9.232;2023-12-14T00:39:09;5.20;;;3.20;;
3567;SDS011;1798;48.486;9.232;2023-12-14T00:41:36;5.97;;;3.00;;
3567;SDS011;1798;48.486;9.232;2023-12-14T00:44:02;4.70;;;3.30;;
3567;SDS011;1798;48.486;9.232;2023-12-14T00:46:29;4.90;;;2.77;;
3567;SDS011;1798;48.486;9.232;2023-12-14T00:48:56;6.20;;;3.40;;
3567;SDS011;1798;48.486;9.232;2023-12-14T00:51:22;5.33;;;3.20;;
3567;SDS011;1798;48.486;9.232;2023-12-14T00:53:49;4.83;;;3.20;;
3567;SDS011;1798;48.486;9.232;2023-12-14T00:56:17;5.17;;;3.30;;
3567;SDS011;1798;48.486;9.232;2023-12-14T00:58:43;5.60;;;2.77;;
3567;SDS011;1798;48.486;9.232;2023-12-14T01:01:10;5.13;;;2.87;;
3567;SDS011;1798;48.486;9.232;2023-12-14T01:03:36;5.47;;;3.40;;
3567;SDS011;1798;48.486;9.232;2023-12-14T01:06:03;4.53;;;3.03;;
3567;SDS011;1798;48.486;9.232;2023-12-14T01:08:30;22.43;;;4.30;;
3567;SDS011;1798;48.486;9.232;2023-12-14T01:10:56;7.13;;;3.10;;
3567;SDS011;1798;48.486;9.232;2023-12-14T01:13:24;9.60;;;3.30;;
3567;SDS011;1798;48.486;9.232;2023-12-14T01:15:51;4.50;;;2.63;;
3567;SDS011;1798;48.486;9.232;2023-12-14T01:18:17;15.10;;;3.53;;
3567;SDS011;1798;48.486;9.232;2023-12-14T01:20:44;5.80;;;2.67;;
3567;SDS011;1798;48.486;9.232;2023-12-14T01:23:10;5.70;;;3.17;;
3567;SDS011;1798;48.486;9.232;2023-12-14T01:25:37;9.80;;;4.00;;
3567;SDS011;1798;48.486;9.232;2023-12-14T01:28:03;7.33;;;3.83;;
3567;SDS011;1798;48.486;9.232;2023-12-14T01:30:31;9.90;;;4.40;;
3567;SDS011;1798;48.486;9.232;2023-12-14T01:32:58;5.87;;;3.03;;
3567;SDS011;1798;48.486;9.232;2023-12-14T01:35:24;6.20;;;3.13;;
3567;SDS011;1798;48.486;9.232;2023-12-14T01:37:51;8.70;;;3.70;;
3567;SDS011;1798;48.486;9.232;2023-12-14T01:40:18;12.70;;;3.90;;
3567;SDS011;1798;48.486;9.232;2023-12-14T01:42:45;5.20;;;3.10;;
3567;SDS011;1798;48.486;9.232;2023-12-14T01:45:11;5.10;;;3.13;;
3567;SDS011;1798;48.486;9.232;2023-12-14T01:47:42;6.60;;;3.63;;
3567;SDS011;1798;48.486;9.232;2023-12-14T01:50:08;5.60;;;3.43;;
3567;SDS011;1798;48.486;9.232;2023-12-14T01:52:35;7.53;;;3.80;;
3567;SDS011;1798;48.486;9.232;2023-12-14T01:55:02;11.80;;;2.67;;
3567;SDS011;1798;48.486;9.232;2023-12-14T01:57:29;8.13;;;3.73;;
3567;SDS011;1798;48.486;9.232;2023-12-14T01:59:55;6.40;;;3.40;;
3567;SDS011;1798;48.486;9.232;2023-12-14T02:02:22;6.43;;;3.60;;
3567;SDS011;1798;48.486;9.232;2023-12-14T02:04:50;11.07;;;4.27;;
3567;SDS011;1798;48.486;9.232;2023-12-14T02:07:16;4.90;;;3.00;;
3567;SDS011;1798;48.486;9.232;2023-12-14T02:09:43;6.50;;;2.87;;
3567;SDS011;1798;48.486;9.232;2023-12-14T02:12:09;6.47;;;3.50;;
3567;SDS011;1798;48.486;9.232;2023-12-14T02:14:36;5.50;;;3.33;;
3567;SDS011;1798;48.486;9.232;2023-12-14T02:17:02;11.77;;;3.77;;
3567;SDS011;1798;48.486;9.232;2023-12-14T02:19:29;12.80;;;3.43;;
3567;SDS011;1798;48.486;9.232;2023-12-14T02:21:57;6.63;;;3.50;;
3567;SDS011;1798;48.486;9.232;2023-12-14T02:24:25;5.97;;;3.57;;
3567;SDS011;1798;48.486;9.232;2023-12-14T02:26:52;8.37;;;4.10;;
3567;SDS011;1798;48.486;9.232;2023-12-14T02:29:18;7.47;;;3.73;;
3567;SDS011;1798;48.486;9.232;2023-12-14T02:31:45;8.70;;;3.27;;
3567;SDS011;1798;48.486;9.232;2023-12-14T02:34:12;9.17;;;4.10;;
3567;SDS011;1798;48.486;9.232;2023-12-14T02:36:39;8.60;;;4.10;;
3567;SDS011;1798;48.486;9.232;2023-12-14T02:39:06;7.10;;;3.50;;
3567;SDS011;1798;48.486;9.232;2023-12-14T02:41:34;7.50;;;3.40;;
3567;SDS011;1798;48.486;9.232;2023-12-14T02:44:00;8.53;;;4.13;;
3567;SDS011;1798;48.486;9.232;2023-12-14T02:46:27;6.07;;;3.03;;
3567;SDS011;1798;48.486;9.232;2023-12-14T02:48:53;6.37;;;3.50;;
3567;SDS011;1798;48.486;9.232;2023-12-14T02:51:20;11.93;;;3.80;;
3567;SDS011;1798;48.486;9.232;2023-12-14T02:53:46;9.67;;;3.67;;
3567;SDS011;1798;48.486;9.232;2023-12-14T02:56:13;5.30;;;3.03;;
3567;SDS011;1798;48.486;9.232;2023-12-14T02:58:41;5.13;;;3.07;;
3567;SDS011;1798;48.486;9.232;2023-12-14T03:01:07;6.43;;;4.00;;
3567;SDS011;1798;48.486;9.232;2023-12-14T03:03:34;5.70;;;3.63;;
3567;SDS011;1798;48.486;9.232;2023-12-14T03:06:00;7.07;;;3.37;;
3567;SDS011;1798;48.486;9.232;2023-12-14T03:08:27;6.40;;;3.20;;
3567;SDS011;1798;48.486;9.232;2023-12-14T03:10:53;4.97;;;3.10;;
3567;SDS011;1798;48.486;9.232;2023-12-14T03:13:20;8.73;;;3.30;;
3567;SDS011;1798;48.486;9.232;2023-12-14T03:15:48;4.97;;;3.50;;
3567;SDS011;1798;48.486;9.232;2023-12-14T03:18:15;6.90;;;3.40;;
3567;SDS011;1798;48.486;9.232;2023-12-14T03:20:41;7.00;;;3.67;;
3567;SDS011;1798;48.486;9.232;2023-12-14T03:23:08;13.40;;;2.93;;
3567;SDS011;1798;48.486;9.232;2023-12-14T03:25:34;10.50;;;3.63;;
3567;SDS011;1798;48.486;9.232;2023-12-14T03:28:01;8.60;;;3.53;;
3567;SDS011;1798;48.486;9.232;2023-12-14T03:30:27;7.00;;;3.50;;
3567;SDS011;1798;48.486;9.232;2023-12-14T03:32:55;5.47;;;3.13;;
3567;SDS011;1798;48.486;9.232;2023-12-14T03:35:22;6.90;;;3.13;;
3567;SDS011;1798;48.486;9.232;2023-12-14T03:37:48;6.40;;;3.20;;
3567;SDS011;1798;48.486;9.232;2023-12-14T03:40:15;5.60;;;3.20;;
3567;SDS011;1798;48.486;9.232;2023-12-14T03:42:41;5.60;;;2.73;;
3567;SDS011;1798;48.486;9.232;2023-12-14T03:45:08;4.87;;;2.67;;
3567;SDS011;1798;48.486;9.232;2023-12-14T03:47:35;5.10;;;2.70;;
3567;SDS011;1798;48.486;9.232;2023-12-14T03:50:04;6.17;;;3.20;;
3567;SDS011;1798;48.486;9.232;2023-12-14T03:52:31;7.60;;;3.30;;
3567;SDS011;1798;48.486;9.232;2023-12-14T03:54:58;6.50;;;3.03;;
3567;SDS011;1798;48.486;9.232;2023-12-14T03:57:25;5.40;;;3.17;;
3567;SDS011;1798;48.486;9.232;2023-12-14T03:59:51;4.63;;;2.63;;
3567;SDS011;1798;48.486;9.232;2023-12-14T04:02:18;4.47;;;3.00;;
3567;SDS011;1798;48.486;9.232;2023-12-14T04:04:45;5.73;;;3.60;;
3567;SDS011;1798;48.486;9.232;2023-12-14T04:07:13;4.87;;;2.97;;
3567;SDS011;1798;48.486;9.232;2023-12-14T04:09:40;5.27;;;3.17;;
3567;SDS011;1798;48.486;9.232;2023-12-14T04:12:06;6.20;;;3.50;;
3567;SDS011;1798;48.486;9.232;2023-12-14T04:14:33;6.00;;;2.83;;
3567;SDS011;1798;48.486;9.232;2023-12-14T04:16:59;5.03;;;3.00;;
3567;SDS011;1798;48.486;9.232;2023-12-14T04:19:26;5.10;;;3.20;;
3567;SDS011;1798;48.486;9.232;2023-12-14T04:21:52;5.03;;;3.30;;
3567;SDS011;1798;48.486;9.232;2023-12-14T04:24:20;5.27;;;2.93;;
3567;SDS011;1798;48.486;9.232;2023-12-14T04:26:47;5.67;;;3.40;;
3567;SDS011;1798;48.486;9.232;2023-12-14T04:29:13;5.33;;;3.10;;
3567;SDS011;1798;48.486;9.232;2023-12-14T04:31:40;6.40;;;3.20;;
3567;SDS011;1798;48.486;9.232;2023-12-14T04:34:06;4.93;;;3.13;;
3567;SDS011;1798;48.486;9.232;2023-12-14T04:36:37;7.23;;;3.20;;
3567;SDS011;1798;48.486;9.232;2023-12-14T04:39:03;6.47;;;3.30;;
3567;SDS011;1798;48.486;9.232;2023-12-14T04:41:31;8.63;;;3.87;;
3567;SDS011;1798;48.486;9.232;2023-12-14T04:43:58;7.13;;;3.57;;
3567;SDS011;1798;48.486;9.232;2023-12-14T04:46:24;5.83;;;3.37;;
3567;SDS011;1798;48.486;9.232;2023-12-14T04:48:51;5.40;;;3.07;;
3567;SDS011;1798;48.486;9.232;2023-12-14T04:51:17;8.67;;;3.63;;
3567;SDS011;1798;48.486;9.232;2023-12-14T04:53:44;5.97;;;3.00;;
3567;SDS011;1798;48.486;9.232;2023-12-14T04:56:10;4.60;;;2.93;;
3567;SDS011;1798;48.486;9.232;2023-12-14T04:58:38;5.93;;;3.50;;
3567;SDS011;1798;48.486;9.232;2023-12-14T05:01:06;4.97;;;2.90;;
3567;SDS011;1798;48.486;9.232;2023-12-14T05:03:32;5.80;;;2.90;;
3567;SDS011;1798;48.486;9.232;2023-12-14T05:05:59;7.00;;;2.70;;
3567;SDS011;1798;48.486;9.232;2023-12-14T05:08:26;5.03;;;3.30;;
3567;SDS011;1798;48.486;9.232;2023-12-14T05:10:52;4.77;;;2.80;;
3567;SDS011;1798;48.486;9.232;2023-12-14T05:13:19;13.90;;;3.80;;
3567;SDS011;1798;48.486;9.232;2023-12-14T05:15:47;6.90;;;3.23;;
3567;SDS011;1798;48.486;9.232;2023-12-14T05:18:13;7.90;;;3.57;;
3567;SDS011;1798;48.486;9.232;2023-12-14T05:20:40;7.60;;;3.10;;
3567;SDS011;1798;48.486;9.232;2023-12-14T05:23:06;5.17;;;3.33;;
3567;SDS011;1798;48.486;9.232;2023-12-14T05:25:33;6.23;;;3.73;;
3567;SDS011;1798;48.486;9.232;2023-12-14T05:28:00;7.37;;;3.93;;
3567;SDS011;1798;48.486;9.232;2023-12-14T05:30:26;7.03;;;3.60;;
3567;SDS011;1798;48.486;9.232;2023-12-14T05:32:54;5.83;;;3.80;;
3567;SDS011;1798;48.486;9.232;2023-12-14T05:35:21;7.80;;;3.60;;
3567;SDS011;1798;48.486;9.232;2023-12-14T05:37:48;9.47;;;3.67;;
3567;SDS011;1798;48.486;9.232;2023-12-14T05:40:15;11.23;;;3.80;;
3567;SDS011;1798;48.486;9.232;2023-12-14T05:42:41;5.20;;;3.00;;
3567;SDS011;1798;48.486;9.232;2023-12-14T05:45:08;4.93;;;3.03;;
3567;SDS011;1798;48.486;9.232;2023-12-14T05:47:35;7.70;;;3.50;;
3567;SDS011;1798;48.486;9.232;2023-12-14T05:50:05;6.77;;;3.33;;
3567;SDS011;1798;48.486;9.232;2023-12-14T05:52:34;6.57;;;3.70;;
3567;SDS011;1798;48.486;9.232;2023-12-14T05:55:01;6.80;;;3.70;;
3567;SDS011;1798;48.486;9.232;2023-12-14T05:57:27;11.77;;;3.93;;
3567;SDS011;1798;48.486;9.232;2023-12-14T05:59:54;7.63;;;3.90;;
3567;SDS011;1798;48.486;9.232;2023-12-14T06:02:20;7.33;;;4.00;;
3567;SDS011;1798;48.486;9.232;2023-12-14T06:04:47;6.03;;;3.43;;
3567;SDS011;1798;48.486;9.232;2023-12-14T06:07:15;8.87;;;4.13;;
3567;SDS011;1798;48.486;9.232;2023-12-14T06:09:42;5.60;;;3.50;;
3567;SDS011;1798;48.486;9.232;2023-12-14T06:12:08;10.70;;;3.80;;
3567;SDS011;1798;48.486;9.232;2023-12-14T06:14:35;6.90;;;4.17;;
3567;SDS011;1798;48.486;9.232;2023-12-14T06:17:02;7.07;;;4.07;;
3567;SDS011;1798;48.486;9.232;2023-12-14T06:19:28;7.33;;;4.00;;
3567;SDS011;1798;48.486;9.232;2023-12-14T06:21:55;5.90;;;3.70;;
3567;SDS011;1798;48.486;9.232;2023-12-14T06:24:23;10.07;;;4.00;;
3567;SDS011;1798;48.486;9.232;2023-12-14T06:26:49;6.60;;;4.03;;
3567;SDS011;1798;48.486;9.232;2023-12-14T06:29:16;14.53;;;4.93;;
3567;SDS011;1798;48.486;9.232;2023-12-14T06:31:44;7.37;;;4.77;;
3567;SDS011;1798;48.486;9.232;2023-12-14T06:34:11;12.83;;;4.70;;
3567;SDS011;1798;48.486;9.232;2023-12-14T06:36:41;7.27;;;4.87;;
3567;SDS011;1798;48.486;9.232;2023-12-14T06:39:08;8.27;;;4.53;;
3567;SDS011;1798;48.486;9.232;2023-12-14T06:41:37;11.90;;;4.17;;
3567;SDS011;1798;48.486;9.232;2023-12-14T06:44:03;9.10;;;4.67;;
3567;SDS011;1798;48.486;9.232;2023-12-14T06:46:30;10.37;;;3.83;;
3567;SDS011;1798;48.486;9.232;2023-12-14T06:48:57;7.30;;;4.20;;
3567;SDS011;1798;48.486;9.232;2023-12-14T06:51:23;8.87;;;4.67;;
3567;SDS011;1798;48.486;9.232;2023-12-14T06:53:50;8.70;;;5.20;;
3567;SDS011;1798;48.486;9.232;2023-12-14T06:56:17;9.93;;;5.30;;
3567;SDS011;1798;48.486;9.232;2023-12-14T06:58:45;7.30;;;4.80;;
3567;SDS011;1798;48.486;9.232;2023-12-14T07:01:14;8.80;;;4.83;;
3567;SDS011;1798;48.486;9.232;2023-12-14T07:03:41;7.93;;;4.87;;
3567;SDS011;1798;48.486;9.232;2023-12-14T07:06:11;7.13;;;5.00;;
3567;SDS011;1798;48.486;9.232;2023-12-14T07:08:38;9.23;;;6.00;;
3567;SDS011;1798;48.486;9.232;2023-12-14T07:11:05;7.97;;;5.40;;
3567;SDS011;1798;48.486;9.232;2023-12-14T07:13:32;8.40;;;5.80;;
3567;SDS011;1798;48.486;9.232;2023-12-14T07:16:00;9.50;;;6.17;;
3567;SDS011;1798;48.486;9.232;2023-12-14T07:18:26;7.43;;;5.73;;
3567;SDS011;1798;48.486;9.232;2023-12-14T07:20:53;10.00;;;6.03;;
3567;SDS011;1798;48.486;9.232;2023-12-14T07:23:19;12.53;;;6.10;;
3567;SDS011;1798;48.486;9.232;2023-12-14T07:25:46;10.40;;;6.03;;
3567;SDS011;1798;48.486;9.232;2023-12-14T07:28:12;11.27;;;6.37;;
3567;SDS011;1798;48.486;9.232;2023-12-14T07:30:39;10.80;;;6.10;;
3567;SDS011;1798;48.486;9.232;2023-12-14T07:33:07;9.03;;;5.70;;
3567;SDS011;1798;48.486;9.232;2023-12-14T07:35:33;7.87;;;5.10;;
3567;SDS011;1798;48.486;9.232;2023-12-14T07:38:00;13.23;;;5.87;;
3567;SDS011;1798;48.486;9.232;2023-12-14T07:40:27;9.63;;;5.27;;
3567;SDS011;1798;48.486;9.232;2023-12-14T07:42:53;13.47;;;6.47;;
3567;SDS011;1798;48.486;9.232;2023-12-14T07:45:20;8.07;;;5.00;;
3567;SDS011;1798;48.486;9.232;2023-12-14T07:47:47;7.87;;;5.30;;
3567;SDS011;1798;48.486;9.232;2023-12-14T07:50:15;8.30;;;5.17;;
3567;SDS011;1798;48.486;9.232;2023-12-14T07:52:41;8.30;;;4.93;;
3567;SDS011;1798;48.486;9.232;2023-12-14T07:55:08;8.30;;;5.40;;
3567;SDS011;1798;48.486;9.232;2023-12-14T07:57:34;17.67;;;5.60;;
3567;SDS011;1798;48.486;9.232;2023-12-14T08:00:01;20.20;;;5.17;;
3567;SDS011;1798;48.486;9.232;2023-12-14T08:02:29;9.33;;;5.43;;
3567;SDS011;1798;48.486;9.232;2023-12-14T08:04:55;10.40;;;5.37;;
3567;SDS011;1798;48.486;9.232;2023-12-14T08:07:23;8.30;;;5.90;;
3567;SDS011;1798;48.486;9.232;2023-12-14T08:09:54;7.00;;;4.60;;
3567;SDS011;1798;48.486;9.232;2023-12-14T08:12:20;7.73;;;4.63;;
3567;SDS011;1798;48.486;9.232;2023-12-14T08:14:47;8.60;;;6.20;;
3567;SDS011;1798;48.486;9.232;2023-12-14T08:17:13;14.17;;;7.53;;
3567;SDS011;1798;48.486;9.232;2023-12-14T08:19:40;12.80;;;6.57;;
3567;SDS011;1798;48.486;9.232;2023-12-14T08:22:07;12.37;;;6.30;;
3567;SDS011;1798;48.486;9.232;2023-12-14T08:24:37;9.10;;;5.93;;
3567;SDS011;1798;48.486;9.232;2023-12-14T08:27:04;6.57;;;4.67;;
3567;SDS011;1798;48.486;9.232;2023-12-14T08:29:30;6.20;;;4.40;;
3567;SDS011;1798;48.486;9.232;2023-12-14T08:31:57;6.90;;;4.80;;
3567;SDS011;1798;48.486;9.232;2023-12-14T08:34:24;9.47;;;5.47;;
3567;SDS011;1798;48.486;9.232;2023-12-14T08:36:51;13.93;;;5.73;;
3567;SDS011;1798;48.486;9.232;2023-12-14T08:39:17;8.87;;;4.60;;
3567;SDS011;1798;48.486;9.232;2023-12-14T08:41:46;10.40;;;6.67;;
3567;SDS011;1798;48.486;9.232;2023-12-14T08:44:13;9.00;;;6.03;;
3567;SDS011;1798;48.486;9.232;2023-12-14T08:46:40;8.23;;;5.50;;
3567;SDS011;1798;48.486;9.232;2023-12-14T08:49:07;10.70;;;5.67;;
3567;SDS011;1798;48.486;9.232;2023-12-14T08:51:33;8.07;;;5.43;;
3567;SDS011;1798;48.486;9.232;2023-12-14T08:54:00;8.47;;;4.80;;
3567;SDS011;1798;48.486;9.232;2023-12-14T08:56:27;9.10;;;5.53;;
3567;SDS011;1798;48.486;9.232;2023-12-14T08:58:55;10.93;;;4.87;;
3567;SDS011;1798;48.486;9.232;2023-12-14T09:01:22;10.43;;;5.70;;
3567;SDS011;1798;48.486;9.232;2023-12-14T09:03:49;11.07;;;6.80;;
3567;SDS011;1798;48.486;9.232;2023-12-14T09:06:16;9.37;;;5.77;;
3567;SDS011;1798;48.486;9.232;2023-12-14T09:08:43;10.47;;;5.37;;
3567;SDS011;1798;48.486;9.232;2023-12-14T09:11:10;8.27;;;4.80;;
3567;SDS011;1798;48.486;9.232;2023-12-14T09:13:36;9.90;;;5.07;;
3567;SDS011;1798;48.486;9.232;2023-12-14T09:16:05;7.83;;;5.17;;
3567;SDS011;1798;48.486;9.232;2023-12-14T09:18:32;6.60;;;4.20;;
3567;SDS011;1798;48.486;9.232;2023-12-14T09:20:58;9.27;;;4.90;;
3567;SDS011;1798;48.486;9.232;2023-12-14T09:23:25;10.30;;;4.70;;
3567;SDS011;1798;48.486;9.232;2023-12-14T09:25:51;5.80;;;4.10;;
3567;SDS011;1798;48.486;9.232;2023-12-14T09:28:18;5.60;;;3.60;;
3567;SDS011;1798;48.486;9.232;2023-12-14T09:30:44;12.43;;;3.70;;
3567;SDS011;1798;48.486;9.232;2023-12-14T09:33:12;8.33;;;4.43;;
3567;SDS011;1798;48.486;9.232;2023-12-14T09:35:39;8.27;;;4.00;;
3567;SDS011;1798;48.486;9.232;2023-12-14T09:38:06;7.97;;;3.80;;
3567;SDS011;1798;48.486;9.232;2023-12-14T09:40:33;7.50;;;4.80;;
3567;SDS011;1798;48.486;9.232;2023-12-14T09:43:00;6.80;;;3.93;;
3567;SDS011;1798;48.486;9.232;2023-12-14T09:45:27;7.80;;;4.57;;
3567;SDS011;1798;48.486;9.232;2023-12-14T09:47:55;7.27;;;4.57;;
3567;SDS011;1798;48.486;9.232;2023-12-14T09:50:23;9.10;;;4.43;;
3567;SDS011;1798;48.486;9.232;2023-12-14T09:52:50;8.70;;;4.43;;
3567;SDS011;1798;48.486;9.232;2023-12-14T09:55:17;8.73;;;4.07;;
3567;SDS011;1798;48.486;9.232;2023-12-14T09:57:43;8.43;;;4.53;;
3567;SDS011;1798;48.486;9.232;2023-12-14T10:00:11;6.50;;;4.07;;
3567;SDS011;1798;48.486;9.232;2023-12-14T10:02:39;8.87;;;4.80;;
3567;SDS011;1798;48.486;9.232;2023-12-14T10:05:08;7.30;;;3.43;;
3567;SDS011;1798;48.486;9.232;2023-12-14T10:07:39;6.20;;;3.37;;
3567;SDS011;1798;48.486;9.232;2023-12-14T10:10:12;7.57;;;4.70;;
3567;SDS011;1798;48.486;9.232;2023-12-14T10:12:50;8.40;;;4.93;;
3567;SDS011;1798;48.486;9.232;2023-12-14T10:15:18;7.63;;;4.30;;
3567;SDS011;1798;48.486;9.232;2023-12-14T10:17:44;17.20;;;4.73;;
3567;SDS011;1798;48.486;9.232;2023-12-14T10:20:18;9.50;;;4.50;;
3567;SDS011;1798;48.486;9.232;2023-12-14T10:22:48;6.73;;;4.70;;
3567;SDS011;1798;48.486;9.232;2023-12-14T10:25:15;6.37;;;4.47;;
3567;SDS011;1798;48.486;9.232;2023-12-14T10:27:42;6.47;;;4.30;;
3567;SDS011;1798;48.486;9.232;2023-12-14T10:30:09;6.47;;;4.40;;
3567;SDS011;1798;48.486;9.232;2023-12-14T10:32:37;7.10;;;4.27;;
3567;SDS011;1798;48.486;9.232;2023-12-14T10:35:06;6.47;;;4.40;;
3567;SDS011;1798;48.486;9.232;2023-12-14T11:04:33;12.93;;;4.57;;
3567;SDS011;1798;48.486;9.232;2023-12-14T11:10:12;7.80;;;4.73;;
3567;SDS011;1798;48.486;9.232;2023-12-14T11:12:49;7.93;;;4.63;;
3567;SDS011;1798;48.486;9.232;2023-12-14T11:15:17;8.60;;;4.80;;
3567;SDS011;1798;48.486;9.232;2023-12-14T11:17:49;9.13;;;4.87;;
3567;SDS011;1798;48.486;9.232;2023-12-14T11:20:51;8.53;;;4.90;;
3567;SDS011;1798;48.486;9.232;2023-12-14T11:23:27;8.60;;;4.90;;
3567;SDS011;1798;48.486;9.232;2023-12-14T11:25:56;7.30;;;4.13;;
3567;SDS011;1798;48.486;9.232;2023-12-14T11:28:24;8.80;;;4.70;;
3567;SDS011;1798;48.486;9.232;2023-12-14T11:30:51;5.90;;;3.57;;
3567;SDS011;1798;48.486;9.232;2023-12-14T11:33:18;10.53;;;5.33;;
3567;SDS011;1798;48.486;9.232;2023-12-14T11:35:44;7.20;;;4.80;;
3567;SDS011;1798;48.486;9.232;2023-12-14T11:38:12;7.60;;;4.57;;
3567;SDS011;1798;48.486;9.232;2023-12-14T11:40:39;7.30;;;4.47;;
3567;SDS011;1798;48.486;9.232;2023-12-14T11:43:06;7.20;;;4.77;;
3567;SDS011;1798;48.486;9.232;2023-12-14T11:45:33;8.80;;;4.43;;
3567;SDS011;1798;48.486;9.232;2023-12-14T11:48:01;8.50;;;3.60;;
3567;SDS011;1798;48.486;9.232;2023-12-14T11:50:29;8.63;;;4.50;;
3567;SDS011;1798;48.486;9.232;2023-12-14T11:52:56;6.90;;;3.60;;
3567;SDS011;1798;48.486;9.232;2023-12-14T11:55:24;7.43;;;4.20;;
3567;SDS011;1798;48.486;9.232;2023-12-14T11:57:51;8.93;;;4.27;;
3567;SDS011;1798;48.486;9.232;2023-12-14T12:00:18;6.63;;;4.60;;
3567;SDS011;1798;48.486;9.232;2023-12-14T12:02:49;9.37;;;4.20;;
3567;SDS011;1798;48.486;9.232;2023-12-14T12:05:16;7.13;;;5.03;;
3567;SDS011;1798;48.486;9.232;2023-12-14T12:07:44;6.90;;;4.53;;
3567;SDS011;1798;48.486;9.232;2023-12-14T12:10:10;7.37;;;4.23;;
3567;SDS011;1798;48.486;9.232;2023-12-14T12:12:39;5.67;;;3.50;;
3567;SDS011;1798;48.486;9.232;2023-12-14T12:15:06;7.80;;;4.10;;
3567;SDS011;1798;48.486;9.232;2023-12-14T12:17:33;5.03;;;2.93;;
3567;SDS011;1798;48.486;9.232;2023-12-14T12:20:03;8.70;;;4.00;;
3567;SDS011;1798;48.486;9.232;2023-12-14T12:22:30;5.50;;;3.80;;
3567;SDS011;1798;48.486;9.232;2023-12-14T12:24:57;7.23;;;4.30;;
3567;SDS011;1798;48.486;9.232;2023-12-14T12:27:25;6.50;;;4.17;;
3567;SDS011;1798;48.486;9.232;2023-12-14T12:29:52;5.97;;;3.70;;
3567;SDS011;1798;48.486;9.232;2023-12-14T12:32:20;5.37;;;3.53;;
3567;SDS011;1798;48.486;9.232;2023-12-14T12:34:46;6.63;;;3.80;;
3567;SDS011;1798;48.486;9.232;2023-12-14T12:37:13;5.77;;;3.40;;
3567;SDS011;1798;48.486;9.232;2023-12-14T12:39:39;7.53;;;4.10;;
3567;SDS011;1798;48.486;9.232;2023-12-14T12:42:06;7.33;;;4.27;;
3567;SDS011;1798;48.486;9.232;2023-12-14T12:44:32;6.50;;;3.70;;
3567;SDS011;1798;48.486;9.232;2023-12-14T12:47:01;7.03;;;4.30;;
3567;SDS011;1798;48.486;9.232;2023-12-14T12:49:28;6.57;;;4.47;;
3567;SDS011;1798;48.486;9.232;2023-12-14T12:51:55;6.73;;;4.17;;
3567;SDS011;1798;48.486;9.232;2023-12-14T12:54:21;8.60;;;4.43;;
3567;SDS011;1798;48.486;9.232;2023-12-14T12:56:48;6.97;;;4.20;;
3567;SDS011;1798;48.486;9.232;2023-12-14T12:59:14;6.80;;;4.70;;
3567;SDS011;1798;48.486;9.232;2023-12-14T13:01:41;8.80;;;4.73;;
3567;SDS011;1798;48.486;9.232;2023-12-14T13:04:18;9.70;;;4.50;;
3567;SDS011;1798;48.486;9.232;2023-12-14T13:06:46;7.67;;;4.30;;
3567;SDS011;1798;48.486;9.232;2023-12-14T13:09:13;18.63;;;5.00;;
3567;SDS011;1798;48.486;9.232;2023-12-14T13:11:41;13.03;;;5.57;;
3567;SDS011;1798;48.486;9.232;2023-12-14T13:14:08;8.07;;;5.13;;
3567;SDS011;1798;48.486;9.232;2023-12-14T13:16:34;6.40;;;4.80;;
3567;SDS011;1798;48.486;9.232;2023-12-14T13:19:01;6.90;;;4.03;;
3567;SDS011;1798;48.486;9.232;2023-12-14T13:21:30;7.90;;;4.00;;
3567;SDS011;1798;48.486;9.232;2023-12-14T13:23:57;12.37;;;4.97;;
3567;SDS011;1798;48.486;9.232;2023-12-14T13:26:23;6.80;;;3.77;;
3567;SDS011;1798;48.486;9.232;2023-12-14T13:28:50;6.80;;;4.20;;
3567;SDS011;1798;48.486;9.232;2023-12-14T13:31:17;11.70;;;6.57;;
3567;SDS011;1798;48.486;9.232;2023-12-14T13:33:43;6.40;;;3.87;;
3567;SDS011;1798;48.486;9.232;2023-12-14T13:36:12;8.60;;;5.03;;
3567;SDS011;1798;48.486;9.232;2023-12-14T13:38:40;8.17;;;4.30;;
3567;SDS011;1798;48.486;9.232;2023-12-14T13:41:07;7.20;;;3.83;;
3567;SDS011;1798;48.486;9.232;2023-12-14T13:43:34;11.27;;;5.40;;
3567;SDS011;1798;48.486;9.232;2023-12-14T13:46:00;7.00;;;3.77;;
3567;SDS011;1798;48.486;9.232;2023-12-14T13:48:27;9.03;;;5.20;;
3567;SDS011;1798;48.486;9.232;2023-12-14T13:50:54;13.20;;;5.10;;
3567;SDS011;1798;48.486;9.232;2023-12-14T13:53:21;9.10;;;5.83;;
3567;SDS011;1798;48.486;9.232;2023-12-14T13:55:49;14.00;;;7.30;;
3567;SDS011;1798;48.486;9.232;2023-12-14T13:58:16;12.50;;;5.83;;
3567;SDS011;1798;48.486;9.232;2023-12-14T14:00:43;26.43;;;7.23;;
3567;SDS011;1798;48.486;9.232;2023-12-14T14:03:09;11.47;;;5.90;;
3567;SDS011;1798;48.486;9.232;2023-12-14T14:05:36;9.33;;;5.40;;
3567;SDS011;1798;48.486;9.232;2023-12-14T14:08:02;10.97;;;6.40;;
3567;SDS011;1798;48.486;9.232;2023-12-14T14:10:29;10.33;;;5.57;;
3567;SDS011;1798;48.486;9.232;2023-12-14T14:12:57;18.27;;;6.53;;
3567;SDS011;1798;48.486;9.232;2023-12-14T14:15:24;9.33;;;5.17;;
3567;SDS011;1798;48.486;9.232;2023-12-14T14:17:51;12.10;;;6.40;;
3567;SDS011;1798;48.486;9.232;2023-12-14T14:20:19;13.77;;;5.53;;
3567;SDS011;1798;48.486;9.232;2023-12-14T14:22:45;9.43;;;5.83;;
3567;SDS011;1798;48.486;9.232;2023-12-14T14:25:12;16.50;;;7.70;;
3567;SDS011;1798;48.486;9.232;2023-12-14T14:27:39;8.93;;;5.30;;
3567;SDS011;1798;48.486;9.232;2023-12-14T14:30:07;13.37;;;5.97;;
3567;SDS011;1798;48.486;9.232;2023-12-14T14:32:35;10.20;;;6.00;;
3567;SDS011;1798;48.486;9.232;2023-12-14T14:35:03;9.10;;;5.73;;
3567;SDS011;1798;48.486;9.232;2023-12-14T14:37:30;11.73;;;6.00;;
3567;SDS011;1798;48.486;9.232;2023-12-14T14:39:56;38.00;;;7.10;;
3567;SDS011;1798;48.486;9.232;2023-12-14T14:42:23;12.60;;;7.30;;
3567;SDS011;1798;48.486;9.232;2023-12-14T14:44:49;17.10;;;8.00;;
3567;SDS011;1798;48.486;9.232;2023-12-14T14:47:17;10.43;;;6.57;;
3567;SDS011;1798;48.486;9.232;2023-12-14T14:49:44;7.27;;;4.60;;
3567;SDS011;1798;48.486;9.232;2023-12-14T14:52:10;6.83;;;3.53;;
3567;SDS011;1798;48.486;9.232;2023-12-14T14:54:37;8.03;;;4.23;;
3567;SDS011;1798;48.486;9.232;2023-12-14T14:57:05;6.10;;;4.20;;
3567;SDS011;1798;48.486;9.232;2023-12-14T14:59:32;6.87;;;4.53;;
3567;SDS011;1798;48.486;9.232;2023-12-14T15:01:57;7.03;;;4.20;;
3567;SDS011;1798;48.486;9.232;2023-12-14T15:04:28;8.47;;;4.50;;
3567;SDS011;1798;48.486;9.232;2023-12-14T15:06:55;8.07;;;5.00;;
3567;SDS011;1798;48.486;9.232;2023-12-14T15:09:21;8.40;;;4.10;;
3567;SDS011;1798;48.486;9.232;2023-12-14T15:11:48;6.77;;;4.40;;
3567;SDS011;1798;48.486;9.232;2023-12-14T15:14:15;10.20;;;5.60;;
3567;SDS011;1798;48.486;9.232;2023-12-14T15:16:42;7.47;;;4.00;;
3567;SDS011;1798;48.486;9.232;2023-12-14T15:19:08;10.63;;;4.50;;
3567;SDS011;1798;48.486;9.232;2023-12-14T15:21:37;10.90;;;5.90;;
3567;SDS011;1798;48.486;9.232;2023-12-14T15:24:04;7.43;;;4.50;;
3567;SDS011;1798;48.486;9.232;2023-12-14T15:26:32;8.23;;;4.90;;
3567;SDS011;1798;48.486;9.232;2023-12-14T15:28:58;11.67;;;7.00;;
3567;SDS011;1798;48.486;9.232;2023-12-14T15:31:25;7.70;;;4.87;;
3567;SDS011;1798;48.486;9.232;2023-12-14T15:33:51;11.40;;;6.07;;
3567;SDS011;1798;48.486;9.232;2023-12-14T15:36:18;10.10;;;5.20;;
3567;SDS011;1798;48.486;9.232;2023-12-14T15:38:46;8.50;;;5.53;;
3567;SDS011;1798;48.486;9.232;2023-12-14T15:41:13;21.50;;;7.67;;